Thursday, July 30, 2015, 9:00 PM EDT

KOKV, Winchester Regional

Location: Winchester, VA, United States Lat: 39.15
Local Time: 9:00 PM EDT ( 1:00 GMT) Lon: -78.15
Time Zone: US/Eastern Elev: 728 ft

Show me the last for .
Show Decoded

2015-07-30 20:35 METAR KOKV 310035Z AUTO 30006KT 10SM CLR 27/16 A2992 RMK AO2 =
2015-07-30 20:15 METAR KOKV 310015Z AUTO 31006KT 10SM CLR 28/16 A2992 RMK AO2 =
2015-07-30 19:55 METAR KOKV 302355Z AUTO 30007KT 10SM CLR 29/16 A2992 RMK AO2 =
2015-07-30 19:35 METAR KOKV 302335Z AUTO 31006KT 10SM CLR 30/16 A2991 RMK AO2 =
2015-07-30 19:15 METAR KOKV 302315Z AUTO 29006KT 10SM CLR 31/16 A2991 RMK AO2 =
2015-07-30 18:55 METAR KOKV 302255Z AUTO 30007KT 10SM CLR 31/16 A2990 RMK AO2 LTG DSNT S =
2015-07-30 18:35 METAR KOKV 302235Z AUTO 31007KT 10SM CLR 31/15 A2990 RMK AO2 LTG DSNT SE =
2015-07-30 18:15 METAR KOKV 302215Z AUTO 29011G16KT 10SM CLR 32/15 A2989 RMK AO2 LTG DSNT S =
2015-07-30 17:55 METAR KOKV 302155Z AUTO 31008KT 10SM CLR 32/13 A2989 RMK AO2 LTG DSNT S =
2015-07-30 17:35 METAR KOKV 302135Z AUTO 31011G15KT 10SM CLR 33/15 A2989 RMK AO2 =
2015-07-30 17:15 METAR KOKV 302115Z AUTO 30009KT 10SM CLR 33/17 A2988 RMK AO2 =
2015-07-30 16:55 METAR KOKV 302055Z AUTO 31009G16KT 10SM CLR 33/17 A2988 RMK AO2 LTG DSNT SE =
2015-07-30 16:35 METAR KOKV 302035Z AUTO 30012G17KT 10SM SCT045 SCT050 33/18 A2988 RMK AO2 LTG
                 DSNT SE =
2015-07-30 16:15 METAR KOKV 302015Z AUTO 31010KT 10SM SCT043 BKN050 BKN070 32/21 A2987 RMK AO2
                 LTG DSNT SE AND S =
2015-07-30 15:55 METAR KOKV 301955Z AUTO 30004KT 10SM SCT034 BKN042 OVC090 31/23 A2988 RMK AO2 =
2015-07-30 15:35 METAR KOKV 301935Z AUTO 29004KT 10SM SCT034 SCT045 BKN050 31/22 A2989 RMK AO2
                 LTG DSNT SE =
2015-07-30 15:15 METAR KOKV 301915Z AUTO 00000KT 10SM SCT030 SCT035 SCT070 31/23 A2989 RMK AO2
                 LTG DSNT E AND SE =
2015-07-30 14:55 METAR KOKV 301855Z AUTO 27004KT 10SM CLR 31/23 A2990 RMK AO2 LTG DSNT SE =
2015-07-30 14:35 METAR KOKV 301835Z AUTO 00000KT 10SM SCT065 SCT085 30/23 A2990 RMK AO2 LTG DSNT
                 S =
2015-07-30 14:15 METAR KOKV 301815Z AUTO 32005KT 10SM SCT075 SCT085 30/23 A2992 RMK AO2 LTG DSNT
                 SE =
2015-07-30 13:55 METAR KOKV 301755Z AUTO 28004KT 10SM SCT095 28/23 A2992 RMK AO2 =
2015-07-30 13:35 METAR KOKV 301735Z AUTO 26003KT 10SM SCT070 BKN095 28/23 A2992 RMK AO2 LTG DSNT
                 E =
2015-07-30 13:15 METAR KOKV 301715Z AUTO 21005KT 10SM BKN070 OVC085 26/23 A2994 RMK AO2 LTG DSNT
                 E AND SE =
2015-07-30 12:55 METAR KOKV 301655Z AUTO 33004KT 10SM SCT047 SCT060 OVC085 25/22 A2995 RMK AO2
                 LTG DSNT SE P0006 =
2015-07-30 12:35 METAR KOKV 301635Z AUTO 25004KT 5SM -RA SCT047 BKN060 OVC075 25/22 A2996 RMK AO2
                 P0006 =
2015-07-30 12:15 METAR KOKV 301615Z AUTO 32012G20KT 4SM +RA SCT037 BKN045 OVC075 26/23 A2997 RMK
                 AO2 LTG DSNT NE P0001 =
2015-07-30 11:55 METAR KOKV 301555Z AUTO 30011G16KT 7SM BKN037 BKN050 OVC095 29/22 A2996 RMK AO2
                 =
2015-07-30 11:35 METAR KOKV 301535Z AUTO 29011KT 10SM SCT049 SCT060 OVC095 31/22 A2995 RMK AO2 =
2015-07-30 11:15 METAR KOKV 301515Z AUTO 28010KT 10SM SCT027 SCT065 OVC095 30/22 A2995 RMK AO2 =
2015-07-30 10:55 METAR KOKV 301455Z AUTO 24005KT 10SM SCT070 OVC110 30/23 A2995 RMK AO2 =
2015-07-30 10:15 METAR KOKV 301415Z AUTO 24008KT 10SM SCT120 30/23 A2993 RMK AO2 =
2015-07-30 09:55 METAR KOKV 301355Z AUTO 23005KT 10SM SCT120 30/23 A2993 RMK AO2 =
2015-07-30 09:35 METAR KOKV 301335Z AUTO 22006KT 10SM SCT120 29/23 A2993 RMK AO2 =
2015-07-30 09:15 METAR KOKV 301315Z AUTO 23006KT 10SM CLR 28/23 A2993 RMK AO2 =
2015-07-30 08:55 METAR KOKV 301255Z AUTO 22008KT 10SM CLR 28/23 A2993 RMK AO2 =
2015-07-30 08:35 METAR KOKV 301235Z AUTO 23005KT 10SM CLR 27/23 A2993 RMK AO2 =
2015-07-30 08:15 METAR KOKV 301215Z AUTO 23006KT 7SM CLR 26/23 A2993 RMK AO2 =
2015-07-30 07:55 METAR KOKV 301155Z AUTO 22003KT 10SM CLR 26/23 A2993 RMK AO2 =
2015-07-30 07:35 METAR KOKV 301135Z AUTO 21004KT 10SM CLR 26/23 A2993 RMK AO2 =
2015-07-30 07:15 METAR KOKV 301115Z AUTO 23007KT 10SM CLR 26/23 A2993 RMK AO2 =
2015-07-30 06:55 METAR KOKV 301055Z AUTO 22005KT 7SM CLR 25/23 A2993 RMK AO2 =
2015-07-30 06:35 METAR KOKV 301035Z AUTO 23005KT 7SM CLR 25/23 A2993 RMK AO2 =
2015-07-30 06:15 METAR KOKV 301015Z AUTO 23006KT 7SM SCT100 25/23 A2993 RMK AO2 =
2015-07-30 05:55 METAR KOKV 300955Z AUTO 22004KT 10SM BKN100 25/23 A2992 RMK AO2 =
2015-07-30 05:35 METAR KOKV 300935Z AUTO 23004KT 10SM OVC100 26/23 A2992 RMK AO2 =
2015-07-30 05:15 METAR KOKV 300915Z AUTO 23003KT 10SM SCT085 OVC100 25/23 A2992 RMK AO2 =
2015-07-30 04:55 METAR KOKV 300855Z AUTO 20003KT 10SM BKN110 25/23 A2992 RMK AO2 LTG DSNT NW =
2015-07-30 04:35 METAR KOKV 300835Z AUTO 20003KT 7SM SCT095 OVC120 25/23 A2992 RMK AO2 LTG DSNT
                 NW =
2015-07-30 04:15 METAR KOKV 300815Z AUTO 20003KT 10SM OVC095 25/23 A2992 RMK AO2 =
2015-07-30 03:55 METAR KOKV 300755Z AUTO 19004KT 10SM OVC095 25/23 A2992 RMK AO2 =
2015-07-30 03:35 METAR KOKV 300735Z AUTO 20003KT 10SM OVC095 25/23 A2992 RMK AO2 =
2015-07-30 03:15 METAR KOKV 300715Z AUTO 18003KT 7SM BKN095 BKN120 25/23 A2992 RMK AO2 =
2015-07-30 02:55 METAR KOKV 300655Z AUTO 18003KT 7SM SCT095 25/23 A2993 RMK AO2 =
2015-07-30 02:35 METAR KOKV 300635Z AUTO 17003KT 7SM SCT043 BKN095 25/23 A2994 RMK AO2 =
2015-07-30 02:15 METAR KOKV 300615Z AUTO 16003KT 7SM SCT100 25/23 A2994 RMK AO2 =
2015-07-30 01:55 METAR KOKV 300555Z AUTO 17003KT 7SM SCT100 25/23 A2995 RMK AO2 =
2015-07-30 01:35 METAR KOKV 300535Z AUTO 18004KT 7SM CLR 25/23 A2995 RMK AO2 =
2015-07-30 01:15 METAR KOKV 300515Z AUTO 00000KT 7SM CLR 25/24 A2996 RMK AO2 =
2015-07-30 00:55 METAR KOKV 300455Z AUTO 00000KT 10SM CLR 25/24 A2996 RMK AO2 =
2015-07-30 00:35 METAR KOKV 300435Z AUTO 21003KT 10SM CLR 26/24 A2996 RMK AO2 =
2015-07-30 00:15 METAR KOKV 300415Z AUTO 16005KT 10SM CLR 26/24 A2995 RMK AO2 =
2015-07-29 23:55 METAR KOKV 300355Z AUTO 17004KT 10SM CLR 26/24 A2995 RMK AO2 =
2015-07-29 23:35 METAR KOKV 300335Z AUTO 17003KT 10SM CLR 26/24 A2995 RMK AO2 =
2015-07-29 23:15 METAR KOKV 300315Z AUTO 19003KT 10SM CLR 26/24 A2996 RMK AO2 =
2015-07-29 22:35 METAR KOKV 300235Z AUTO 17004KT 10SM CLR 27/24 A2996 RMK AO2 =
2015-07-29 22:15 METAR KOKV 300215Z AUTO 18005KT 10SM CLR 27/24 A2997 RMK AO2 =
2015-07-29 21:55 METAR KOKV 300155Z AUTO 16003KT 10SM SCT120 27/24 A2996 RMK AO2 =
2015-07-29 21:35 METAR KOKV 300135Z AUTO 16004KT 10SM SCT038 SCT065 OVC120 27/24 A2996 RMK AO2 =
2015-07-29 21:15 METAR KOKV 300115Z AUTO 15004KT 10SM BKN040 BKN065 27/24 A2996 RMK AO2 =

Support USWX by starting your Amazon purchase here.